createdAt,value
2018-05-03T00:00:44.294Z,10.70
2018-05-03T00:03:11.746Z,10.50
2018-05-03T00:05:39.208Z,11.30
2018-05-03T00:08:06.663Z,12.50
2018-05-03T00:10:34.891Z,13.50
2018-05-03T00:13:02.346Z,13.70
2018-05-03T00:15:29.814Z,14.80
2018-05-03T00:17:57.265Z,13.70
2018-05-03T00:20:24.717Z,12.90
2018-05-03T00:22:53.122Z,12.40
2018-05-03T00:25:21.341Z,14.40
2018-05-03T00:27:48.809Z,14.90
2018-05-03T00:30:16.273Z,16.40
2018-05-03T00:32:43.734Z,17.20
2018-05-03T00:35:11.181Z,17.20
2018-05-03T00:37:39.414Z,26.40
2018-05-03T00:40:06.870Z,26.00
2018-05-03T00:42:34.333Z,25.00
2018-05-03T00:45:01.782Z,25.80
2018-05-03T00:47:30.010Z,28.80
2018-05-03T00:49:57.460Z,28.80
2018-05-03T00:52:24.920Z,27.40
2018-05-03T00:54:52.369Z,27.00
2018-05-03T00:57:20.601Z,26.90
2018-05-03T00:59:48.050Z,27.10
2018-05-03T01:02:15.849Z,27.10
2018-05-03T01:04:43.298Z,27.90
2018-05-03T01:07:10.760Z,29.00
2018-05-03T01:09:38.212Z,28.90
2018-05-03T01:12:06.447Z,32.30
2018-05-03T01:14:33.916Z,32.30
2018-05-03T01:17:01.382Z,31.50
2018-05-03T01:19:28.841Z,30.60
2018-05-03T01:21:56.303Z,30.50
2018-05-03T01:24:23.753Z,29.50
2018-05-03T01:26:52.016Z,30.60
2018-05-03T01:29:19.437Z,30.90
2018-05-03T01:31:46.892Z,32.00
2018-05-03T01:34:14.346Z,33.90
2018-05-03T01:36:42.570Z,31.20
2018-05-03T01:39:10.022Z,31.30
2018-05-03T01:41:37.493Z,31.80
2018-05-03T01:44:04.937Z,34.50
2018-05-03T01:46:33.165Z,54.40
2018-05-03T01:49:00.626Z,54.80
2018-05-03T01:51:28.091Z,57.70
2018-05-03T01:53:55.532Z,59.60
2018-05-03T01:56:23.765Z,75.00
2018-05-03T01:58:51.208Z,74.40
2018-05-03T02:01:18.675Z,75.40
2018-05-03T02:03:46.122Z,75.60
2018-05-03T02:06:14.342Z,82.70
2018-05-03T02:08:41.800Z,82.50
2018-05-03T02:11:09.249Z,80.40
2018-05-03T02:13:37.477Z,76.60
2018-05-03T02:16:04.932Z,76.40
2018-05-03T02:18:32.386Z,78.30
2018-05-03T02:20:59.833Z,79.00
2018-05-03T02:23:27.294Z,78.00
2018-05-03T02:25:54.742Z,77.10
2018-05-03T02:28:22.213Z,77.70
2018-05-03T02:30:49.667Z,78.50
2018-05-03T02:33:17.125Z,80.70
2018-05-03T02:35:44.585Z,82.50
2018-05-03T02:38:12.045Z,78.50
2018-05-03T02:40:39.488Z,74.20
2018-05-03T02:43:06.945Z,74.90
2018-05-03T02:45:34.404Z,74.90
2018-05-03T02:48:02.696Z,74.30
2018-05-03T02:50:30.158Z,76.50
2018-05-03T02:52:57.618Z,79.50
2018-05-03T02:55:25.069Z,80.30
2018-05-03T02:58:10.253Z,77.80
2018-05-03T03:00:55.538Z,78.30
2018-05-03T03:03:40.773Z,79.90
2018-05-03T03:06:20.218Z,79.20
2018-05-03T03:12:23.594Z,79.20
2018-05-03T03:15:09.526Z,78.60
2018-05-03T03:17:54.568Z,78.70
2018-05-03T03:20:54.685Z,78.10
2018-05-03T03:23:39.849Z,80.00
2018-05-03T03:26:24.838Z,80.00
2018-05-03T03:29:10.009Z,77.70
2018-05-03T03:31:55.108Z,81.00
2018-05-03T03:34:22.581Z,84.40
2018-05-03T03:40:15.825Z,90.70
2018-05-03T03:45:46.265Z,93.00
2018-05-03T03:48:13.737Z,91.60
2018-05-03T03:50:41.180Z,90.60
2018-05-03T03:53:08.663Z,90.60
2018-05-03T03:55:36.118Z,91.50
2018-05-03T03:58:03.581Z,91.60
2018-05-03T04:00:31.058Z,90.90
2018-05-03T04:02:58.514Z,85.40
2018-05-03T04:05:25.973Z,81.30
2018-05-03T04:07:54.206Z,84.40
2018-05-03T04:10:21.677Z,85.20
2018-05-03T04:12:49.144Z,87.70
2018-05-03T04:15:16.609Z,91.60
2018-05-03T04:21:10.006Z,96.30
2018-05-03T04:23:49.324Z,98.90
2018-05-03T04:26:17.543Z,99.90
2018-05-03T04:28:45.010Z,99.90
2018-05-03T04:31:12.466Z,99.70
2018-05-03T04:33:40.685Z,98.10
2018-05-03T04:36:08.158Z,98.10
2018-05-03T04:38:35.614Z,97.50
2018-05-03T04:41:03.074Z,96.80
2018-05-03T04:43:30.530Z,96.00
2018-05-03T04:45:57.998Z,93.90
2018-05-03T04:48:25.461Z,91.70
2018-05-03T04:50:53.689Z,78.80
2018-05-03T04:53:21.158Z,79.10
2018-05-03T04:55:48.630Z,78.40
2018-05-03T04:58:16.095Z,77.30
2018-05-03T05:00:43.562Z,77.40
2018-05-03T05:03:11.010Z,76.70
2018-05-03T05:05:38.480Z,76.00
2018-05-03T05:08:05.927Z,59.80
2018-05-03T05:10:34.171Z,40.10
2018-05-03T05:13:01.610Z,40.00
2018-05-03T05:15:29.075Z,28.60
2018-05-03T05:17:56.553Z,28.20
2018-05-03T05:20:23.997Z,23.50
2018-05-03T05:22:52.213Z,3.30
2018-05-03T05:25:19.670Z,3.30
2018-05-03T05:27:47.121Z,1.00
2018-05-03T05:30:15.337Z,1.00
2018-05-03T05:32:42.801Z,1.00
2018-05-03T05:35:10.249Z,1.00
2018-05-03T05:37:38.474Z,1.00
2018-05-03T05:40:05.926Z,1.00
2018-05-03T05:42:33.387Z,1.00
2018-05-03T05:45:00.829Z,1.00
2018-05-03T05:47:28.288Z,1.00
2018-05-03T05:49:55.737Z,1.00
2018-05-03T05:52:23.202Z,1.00
2018-05-03T05:54:50.653Z,1.00
2018-05-03T05:57:18.117Z,1.00
2018-05-03T05:59:45.565Z,1.00
2018-05-03T06:02:13.797Z,1.00
2018-05-03T06:04:41.241Z,1.00
2018-05-03T06:07:08.703Z,1.00
2018-05-03T06:09:36.158Z,1.00
2018-05-03T06:12:04.386Z,1.00
2018-05-03T06:14:31.834Z,1.00
2018-05-03T06:16:59.305Z,1.00
2018-05-03T06:19:26.770Z,1.00
2018-05-03T06:21:54.232Z,1.00
2018-05-03T06:24:21.693Z,1.00
2018-05-03T06:26:49.921Z,1.00
2018-05-03T06:29:17.381Z,1.00
2018-05-03T06:31:44.859Z,1.00
2018-05-03T06:34:12.313Z,1.00
2018-05-03T06:36:39.837Z,1.00
2018-05-03T06:39:07.236Z,1.00
2018-05-03T06:41:34.702Z,1.00
2018-05-03T06:44:02.930Z,1.00
2018-05-03T06:46:30.381Z,1.00
2018-05-03T06:48:57.840Z,1.00
2018-05-03T06:51:25.316Z,1.00
2018-05-03T06:53:52.760Z,1.00
2018-05-03T06:56:20.987Z,1.00
2018-05-03T06:58:48.444Z,1.00
2018-05-03T07:01:16.901Z,1.00
2018-05-03T07:03:45.138Z,1.00
2018-05-03T07:06:12.593Z,1.00
2018-05-03T07:08:40.055Z,1.00
2018-05-03T07:11:07.508Z,1.00
2018-05-03T07:13:35.737Z,1.00
2018-05-03T07:16:03.189Z,1.00
2018-05-03T07:18:30.654Z,1.00
2018-05-03T07:20:58.102Z,1.00
2018-05-03T07:23:26.334Z,1.00
2018-05-03T07:25:53.802Z,1.00
2018-05-03T07:28:21.270Z,1.00
2018-05-03T07:30:48.736Z,1.00
2018-05-03T07:33:16.194Z,1.00
2018-05-03T07:35:43.650Z,1.00
2018-05-03T07:38:11.121Z,1.00
2018-05-03T07:40:38.610Z,1.00
2018-05-03T07:43:06.062Z,1.00
2018-05-03T07:45:33.521Z,1.00
2018-05-03T07:48:01.004Z,1.00
2018-05-03T07:50:28.469Z,1.00
2018-05-03T07:52:55.922Z,1.00
2018-05-03T07:55:24.155Z,1.00
2018-05-03T07:57:52.377Z,1.00
2018-05-03T08:00:19.842Z,1.00
2018-05-03T08:02:47.292Z,1.00
2018-05-03T08:05:14.761Z,1.00
2018-05-03T08:07:42.231Z,1.00
2018-05-03T08:10:09.691Z,1.00
2018-05-03T08:12:37.219Z,1.00
2018-05-03T08:15:04.625Z,1.00
2018-05-03T08:17:32.094Z,1.00
2018-05-03T08:19:59.565Z,1.00
2018-05-03T08:22:27.106Z,1.00
2018-05-03T08:24:54.497Z,1.00
2018-05-03T08:27:21.953Z,1.00
2018-05-03T08:29:49.417Z,1.00
2018-05-03T08:32:16.872Z,1.00
2018-05-03T08:34:45.115Z,1.00
2018-05-03T08:37:12.570Z,1.00
2018-05-03T08:39:40.042Z,1.00
2018-05-03T08:42:07.497Z,1.00
2018-05-03T08:44:34.975Z,1.00
2018-05-03T08:47:02.430Z,1.00
2018-05-03T08:49:29.898Z,1.00
2018-05-03T08:51:57.358Z,1.00
2018-05-03T08:54:24.834Z,1.00
2018-05-03T08:56:52.297Z,1.00
2018-05-03T08:59:19.760Z,1.00
2018-05-03T09:01:47.249Z,1.00
2018-05-03T09:04:15.461Z,1.00
2018-05-03T09:06:42.925Z,1.00
2018-05-03T09:09:10.386Z,1.00
2018-05-03T09:11:37.846Z,1.00
2018-05-03T09:14:05.317Z,1.00
2018-05-03T09:16:32.773Z,1.00
2018-05-03T09:19:00.244Z,1.00
2018-05-03T09:21:27.697Z,1.00
2018-05-03T09:23:55.929Z,1.00
2018-05-03T09:26:23.395Z,1.00
2018-05-03T09:28:50.858Z,1.00
2018-05-03T09:31:18.316Z,1.00
2018-05-03T09:33:45.788Z,1.00
2018-05-03T09:36:13.248Z,1.00
2018-05-03T09:38:40.722Z,1.00
2018-05-03T09:41:08.179Z,1.00
2018-05-03T09:43:36.397Z,1.00
2018-05-03T09:46:03.860Z,1.00
2018-05-03T09:48:31.325Z,1.00
2018-05-03T09:50:58.782Z,1.00
2018-05-03T09:53:26.241Z,1.00
2018-05-03T09:55:54.473Z,1.00
2018-05-03T09:58:21.945Z,1.00
2018-05-03T10:00:49.414Z,1.00
2018-05-03T10:03:16.877Z,1.00
2018-05-03T10:05:44.345Z,1.00
2018-05-03T10:08:11.806Z,1.00
2018-05-03T10:10:39.270Z,1.00
2018-05-03T10:13:06.720Z,1.00
2018-05-03T10:15:34.245Z,1.00
2018-05-03T10:18:01.633Z,1.00
2018-05-03T10:20:29.096Z,1.00
2018-05-03T10:22:56.549Z,1.00
2018-05-03T10:25:24.016Z,1.00
2018-05-03T10:27:51.469Z,1.00
2018-05-03T10:30:19.014Z,1.00
2018-05-03T10:32:46.512Z,1.00
2018-05-03T10:35:13.974Z,1.00
2018-05-03T10:37:41.422Z,1.00
2018-05-03T10:40:08.883Z,1.00
2018-05-03T10:42:37.103Z,1.00
2018-05-03T10:45:04.573Z,1.00
2018-05-03T10:47:32.021Z,1.00
2018-05-03T10:49:59.480Z,1.00
2018-05-03T10:52:26.942Z,1.00
2018-05-03T10:54:55.174Z,1.00
2018-05-03T10:57:22.672Z,1.00
2018-05-03T10:59:50.094Z,1.00
2018-05-03T11:02:17.547Z,1.00
2018-05-03T11:04:45.770Z,1.00
2018-05-03T11:07:13.210Z,1.00
2018-05-03T11:09:40.672Z,1.00
2018-05-03T11:12:08.126Z,1.00
2018-05-03T11:14:36.354Z,1.00
2018-05-03T11:17:03.809Z,1.00
2018-05-03T11:19:31.266Z,1.00
2018-05-03T11:21:59.477Z,1.00
2018-05-03T11:24:26.942Z,1.00
2018-05-03T11:26:54.394Z,1.00
2018-05-03T11:29:21.857Z,1.00
2018-05-03T11:31:50.068Z,1.00
2018-05-03T11:34:17.531Z,1.00
2018-05-03T11:36:45.024Z,1.00
2018-05-03T11:39:13.214Z,1.00
2018-05-03T11:41:40.669Z,1.00
2018-05-03T11:44:08.130Z,1.00
2018-05-03T11:46:35.585Z,1.00
2018-05-03T11:49:03.037Z,1.00
2018-05-03T11:51:31.265Z,1.00
2018-05-03T11:53:58.713Z,1.00
2018-05-03T11:56:26.181Z,1.00
2018-05-03T11:58:54.397Z,1.00
2018-05-03T12:01:21.852Z,1.00
2018-05-03T12:03:49.304Z,1.00
2018-05-03T12:06:16.765Z,1.00
2018-05-03T12:08:44.989Z,1.00
2018-05-03T12:11:12.478Z,1.00
2018-05-03T12:13:39.929Z,1.00
2018-05-03T12:16:08.162Z,1.00
2018-05-03T12:18:35.614Z,1.00
2018-05-03T12:21:03.081Z,1.00
2018-05-03T12:23:30.538Z,1.00
2018-05-03T12:25:57.996Z,1.00
2018-05-03T12:28:25.448Z,1.00
2018-05-03T12:30:52.910Z,1.00
2018-05-03T12:33:20.357Z,1.00
2018-05-03T12:35:47.817Z,1.00
2018-05-03T12:38:15.271Z,1.00
2018-05-03T12:40:42.733Z,1.00
2018-05-03T12:43:10.186Z,1.00
2018-05-03T12:45:37.647Z,1.00
2018-05-03T12:48:05.989Z,1.00
2018-05-03T12:50:33.449Z,1.00
2018-05-03T12:53:00.909Z,1.00
2018-05-03T12:55:28.411Z,1.00
2018-05-03T12:57:55.834Z,1.00
2018-05-03T13:00:23.297Z,1.00
2018-05-03T13:02:50.753Z,1.00
2018-05-03T13:05:18.212Z,1.00
2018-05-03T13:07:45.662Z,1.00
2018-05-03T13:10:13.895Z,1.00
2018-05-03T13:12:41.349Z,1.00
2018-05-03T13:15:08.822Z,1.00
2018-05-03T13:17:36.270Z,1.00
2018-05-03T13:20:03.762Z,1.00
2018-05-03T13:22:31.199Z,1.00
2018-05-03T13:24:59.424Z,1.00
2018-05-03T13:27:26.874Z,1.00
2018-05-03T13:29:54.338Z,1.00
2018-05-03T13:32:22.074Z,1.00
2018-05-03T13:34:49.522Z,1.00
2018-05-03T13:37:16.984Z,1.00
2018-05-03T13:39:44.443Z,1.00
2018-05-03T13:42:12.680Z,1.00
2018-05-03T13:44:40.133Z,1.00
2018-05-03T13:47:07.597Z,1.00
2018-05-03T13:49:35.041Z,1.00
2018-05-03T13:52:02.507Z,1.00
2018-05-03T13:54:29.956Z,1.00
2018-05-03T13:56:57.423Z,1.00
2018-05-03T13:59:24.874Z,1.00
2018-05-03T14:01:53.093Z,1.00
2018-05-03T14:04:20.541Z,1.00
2018-05-03T14:06:48.765Z,1.00
2018-05-03T14:09:16.221Z,1.00
2018-05-03T14:11:43.694Z,1.00
2018-05-03T14:14:11.143Z,1.00
2018-05-03T14:16:38.610Z,1.00
2018-05-03T14:19:06.830Z,1.00
2018-05-03T14:21:34.294Z,1.00
2018-05-03T14:24:01.743Z,1.00
2018-05-03T14:26:29.235Z,1.00
2018-05-03T14:28:56.682Z,1.00
2018-05-03T14:31:24.145Z,1.00
2018-05-03T14:33:52.360Z,1.00
2018-05-03T14:36:19.825Z,1.00
2018-05-03T14:38:47.281Z,1.00
2018-05-03T14:41:14.743Z,1.00
2018-05-03T14:43:42.953Z,1.00
2018-05-03T14:46:10.414Z,1.00
2018-05-03T14:48:37.857Z,1.00
2018-05-03T14:51:06.086Z,1.00
2018-05-03T14:53:33.542Z,1.00
2018-05-03T14:56:01.001Z,1.00
2018-05-03T14:58:28.480Z,1.00
2018-05-03T15:00:56.771Z,1.00
2018-05-03T15:03:24.143Z,1.00
2018-05-03T15:05:51.605Z,1.00
2018-05-03T15:08:19.777Z,1.00
2018-05-03T15:10:47.239Z,1.00
2018-05-03T15:13:20.237Z,1.00
2018-05-03T15:15:48.473Z,1.00
2018-05-03T15:18:24.510Z,1.00
2018-05-03T15:20:51.918Z,1.00
2018-05-03T15:23:19.376Z,1.00
2018-05-03T15:25:46.833Z,1.00
2018-05-03T15:28:14.287Z,1.00
2018-05-03T15:30:41.742Z,1.00
2018-05-03T15:33:09.949Z,1.00
2018-05-03T15:35:37.420Z,1.00
2018-05-03T15:38:04.875Z,1.00
2018-05-03T15:40:33.123Z,1.00
2018-05-03T15:43:02.574Z,1.00
2018-05-03T15:45:30.789Z,1.00
2018-05-03T15:48:09.373Z,1.00
2018-05-03T15:50:36.829Z,1.00
2018-05-03T15:53:05.518Z,1.00
2018-05-03T15:55:32.983Z,1.00
2018-05-03T15:58:00.429Z,1.00
2018-05-03T16:00:28.889Z,1.00
2018-05-03T16:02:57.117Z,1.00
2018-05-03T16:05:24.565Z,1.00
2018-05-03T16:07:52.029Z,1.00
2018-05-03T16:10:19.490Z,1.00
2018-05-03T16:12:47.551Z,1.00
2018-05-03T16:15:14.997Z,1.00
2018-05-03T16:17:42.465Z,1.00
2018-05-03T16:20:09.924Z,1.00
2018-05-03T16:22:37.393Z,1.00
2018-05-03T16:25:04.842Z,1.00
2018-05-03T16:27:32.306Z,1.00
2018-05-03T16:29:59.754Z,1.00
2018-05-03T16:32:27.213Z,1.00
2018-05-03T16:34:54.672Z,1.00
2018-05-03T16:37:22.125Z,1.00
2018-05-03T16:39:49.572Z,1.00
2018-05-03T16:42:17.038Z,1.00
2018-05-03T16:44:44.489Z,1.00
2018-05-03T16:47:11.968Z,1.00
2018-05-03T16:49:39.414Z,1.00
2018-05-03T16:52:07.639Z,1.00
2018-05-03T16:54:35.086Z,1.00
2018-05-03T16:57:02.541Z,1.00
2018-05-03T16:59:29.993Z,1.00
2018-05-03T17:01:57.449Z,1.00
2018-05-03T17:04:24.902Z,1.00
2018-05-03T17:06:52.372Z,1.00
2018-05-03T17:09:19.818Z,1.00
2018-05-03T17:11:47.281Z,1.00
2018-05-03T17:14:14.813Z,1.00
2018-05-03T17:16:42.975Z,1.00
2018-05-03T17:19:10.430Z,1.00
2018-05-03T17:21:37.889Z,1.00
2018-05-03T17:24:06.109Z,1.00
2018-05-03T17:26:33.566Z,1.00
2018-05-03T17:29:01.028Z,1.00
2018-05-03T17:31:28.482Z,1.00
2018-05-03T17:33:55.950Z,1.00
2018-05-03T17:36:23.402Z,1.00
2018-05-03T17:38:50.862Z,1.00
2018-05-03T17:41:19.078Z,1.00
2018-05-03T17:43:46.540Z,1.00
2018-05-03T17:46:13.995Z,1.00
2018-05-03T17:48:42.222Z,1.00
2018-05-03T17:51:09.686Z,1.00
2018-05-03T17:53:37.905Z,1.00
2018-05-03T17:56:05.359Z,1.00
2018-05-03T17:58:32.817Z,1.00
2018-05-03T18:01:00.267Z,1.00
2018-05-03T18:03:27.736Z,1.00
2018-05-03T18:05:55.183Z,1.00
2018-05-03T18:08:23.415Z,1.00
2018-05-03T18:10:50.945Z,1.00
2018-05-03T18:13:18.342Z,1.00
2018-05-03T18:15:45.786Z,1.00
2018-05-03T18:18:13.246Z,1.00
2018-05-03T18:20:41.458Z,1.00
2018-05-03T18:23:08.905Z,1.00
2018-05-03T18:25:37.133Z,1.00
2018-05-03T18:28:04.589Z,1.00
2018-05-03T18:30:32.037Z,1.00
2018-05-03T18:32:59.481Z,1.00
2018-05-03T18:35:26.937Z,1.00
2018-05-03T18:37:54.387Z,1.00
2018-05-03T18:40:21.833Z,1.00
2018-05-03T18:42:49.286Z,1.00
2018-05-03T18:45:16.738Z,1.00
2018-05-03T18:47:44.949Z,1.00
2018-05-03T18:50:12.401Z,1.00
2018-05-03T18:52:40.604Z,1.00
2018-05-03T18:55:08.056Z,1.00
2018-05-03T18:57:36.270Z,1.00
2018-05-03T19:00:03.723Z,1.00
2018-05-03T19:02:31.165Z,1.00
2018-05-03T19:04:58.617Z,1.00
2018-05-03T19:07:26.062Z,1.00
2018-05-03T19:09:53.512Z,1.00
2018-05-03T19:12:20.954Z,1.00
2018-05-03T19:14:49.172Z,1.00
2018-05-03T19:17:17.396Z,1.00
2018-05-03T19:19:44.880Z,1.00
2018-05-03T19:22:12.322Z,1.00
2018-05-03T19:24:39.777Z,1.00
2018-05-03T19:27:07.229Z,1.00
2018-05-03T19:29:34.669Z,1.00
2018-05-03T19:32:02.893Z,1.00
2018-05-03T19:34:31.334Z,1.00
2018-05-03T19:36:58.789Z,1.00
2018-05-03T19:39:26.239Z,1.00
2018-05-03T19:41:53.690Z,1.00
2018-05-03T19:44:21.138Z,1.00
2018-05-03T19:46:49.358Z,1.00
2018-05-03T19:49:16.801Z,1.00
2018-05-03T19:51:44.255Z,1.00
2018-05-03T19:54:12.465Z,1.00
2018-05-03T19:56:39.920Z,1.00
2018-05-03T19:59:08.129Z,1.00
2018-05-03T20:01:35.590Z,1.00
2018-05-03T20:04:03.038Z,1.00
2018-05-03T20:06:31.258Z,1.00
2018-05-03T20:08:58.710Z,1.00
2018-05-03T20:11:26.165Z,1.00
2018-05-03T20:13:54.387Z,1.00
2018-05-03T20:16:21.850Z,1.00
2018-05-03T20:18:49.299Z,1.00
2018-05-03T20:21:17.518Z,1.00
2018-05-03T20:23:44.967Z,1.00
2018-05-03T20:26:12.418Z,1.00
2018-05-03T20:28:40.641Z,1.00
2018-05-03T20:31:08.096Z,1.00
2018-05-03T20:33:35.550Z,1.00
2018-05-03T20:36:03.774Z,1.00
2018-05-03T20:38:31.227Z,1.00
2018-05-03T20:40:58.681Z,1.00
2018-05-03T20:43:26.125Z,1.00
2018-05-03T20:45:53.584Z,1.00
2018-05-03T20:48:21.022Z,1.00
2018-05-03T20:50:48.466Z,1.00
2018-05-03T20:53:15.926Z,1.00
2018-05-03T20:55:44.129Z,1.00
2018-05-03T20:58:11.580Z,1.00
2018-05-03T21:00:39.029Z,1.00
2018-05-03T21:03:06.486Z,1.00
2018-05-03T21:05:33.934Z,1.00
2018-05-03T21:08:01.395Z,1.00
2018-05-03T21:10:28.847Z,1.00
2018-05-03T21:12:56.303Z,1.00
2018-05-03T21:15:23.746Z,1.00
2018-05-03T21:17:51.980Z,1.00
2018-05-03T21:20:19.419Z,1.00
2018-05-03T21:22:47.308Z,1.00
2018-05-03T21:25:15.666Z,1.00
2018-05-03T21:27:44.066Z,1.00
2018-05-03T21:30:12.283Z,1.00
2018-05-03T21:32:39.729Z,1.00
2018-05-03T21:35:07.941Z,1.00
2018-05-03T21:37:35.406Z,1.00
2018-05-03T21:40:02.863Z,1.00
2018-05-03T21:42:30.317Z,1.00
2018-05-03T21:44:58.530Z,1.00
2018-05-03T21:47:26.894Z,1.00
2018-05-03T21:49:55.100Z,1.00
2018-05-03T21:52:22.585Z,1.00
2018-05-03T21:54:50.014Z,1.00
2018-05-03T21:57:17.470Z,1.00
2018-05-03T21:59:44.909Z,1.00
2018-05-03T22:02:12.357Z,1.00
2018-05-03T22:04:39.801Z,1.00
2018-05-03T22:07:08.021Z,1.00
2018-05-03T22:09:35.462Z,1.00
2018-05-03T22:12:02.918Z,1.00
2018-05-03T22:14:31.134Z,1.00
2018-05-03T22:16:58.595Z,1.00
2018-05-03T22:19:26.033Z,1.00
2018-05-03T22:21:54.445Z,1.00
2018-05-03T22:24:22.649Z,1.00
2018-05-03T22:26:50.115Z,1.00
2018-05-03T22:29:17.558Z,1.00
2018-05-03T22:31:45.787Z,1.00
2018-05-03T22:34:14.138Z,1.00
2018-05-03T22:36:42.382Z,1.00
2018-05-03T22:39:09.829Z,1.00
2018-05-03T22:41:37.273Z,1.00
2018-05-03T22:44:05.499Z,1.00
2018-05-03T22:46:32.940Z,1.00
2018-05-03T22:49:00.402Z,1.00
2018-05-03T22:51:28.604Z,1.00
2018-05-03T22:53:56.048Z,1.00
2018-05-03T22:56:24.252Z,1.00
2018-05-03T22:58:51.700Z,1.00
2018-05-03T23:01:19.905Z,1.00
2018-05-03T23:03:47.352Z,1.00
2018-05-03T23:06:15.551Z,1.00
2018-05-03T23:08:43.764Z,1.00
2018-05-03T23:11:11.201Z,1.00
2018-05-03T23:13:39.412Z,1.00
2018-05-03T23:16:06.853Z,1.00
2018-05-03T23:18:35.077Z,1.00
2018-05-03T23:21:02.515Z,1.00
2018-05-03T23:23:30.724Z,1.00
2018-05-03T23:25:58.163Z,1.00
2018-05-03T23:28:26.377Z,1.00
2018-05-03T23:30:53.817Z,1.00
2018-05-03T23:33:22.030Z,1.00
2018-05-03T23:35:49.469Z,1.00
2018-05-03T23:38:16.916Z,1.00
2018-05-03T23:40:44.355Z,1.00
2018-05-03T23:43:11.806Z,1.00
2018-05-03T23:45:39.246Z,1.00
2018-05-03T23:48:06.694Z,1.00
2018-05-03T23:50:34.136Z,1.00
2018-05-03T23:53:01.581Z,1.00
2018-05-03T23:55:29.021Z,1.00
2018-05-03T23:57:56.472Z,1.00
